sensor_id;sensor_type;location;lat;lon;timestamp;pressure;altitude;pressure_sealevel;temperature;humidity
79461;BME280;68929;42.666;23.324;2023-07-20T00:00:33;94232.97;;;24.63;nan
79461;BME280;68929;42.666;23.324;2023-07-20T00:03:12;94238.25;;;24.68;nan
79461;BME280;68929;42.666;23.324;2023-07-20T00:05:44;94259.25;;;24.40;nan
79461;BME280;68929;42.666;23.324;2023-07-20T00:08:10;94258.59;;;24.43;nan
79461;BME280;68929;42.666;23.324;2023-07-20T00:10:44;94222.38;;;24.13;nan
79461;BME280;68929;42.666;23.324;2023-07-20T00:13:11;94239.50;;;23.95;nan
79461;BME280;68929;42.666;23.324;2023-07-20T00:15:36;94252.03;;;23.91;nan
79461;BME280;68929;42.666;23.324;2023-07-20T00:18:03;94237.94;;;24.16;nan
79461;BME280;68929;42.666;23.324;2023-07-20T00:20:29;94266.78;;;24.51;nan
79461;BME280;68929;42.666;23.324;2023-07-20T00:22:54;94258.00;;;24.46;nan
79461;BME280;68929;42.666;23.324;2023-07-20T00:25:20;94268.00;;;24.45;nan
79461;BME280;68929;42.666;23.324;2023-07-20T00:27:46;94259.94;;;24.23;nan
79461;BME280;68929;42.666;23.324;2023-07-20T00:30:11;94267.84;;;24.42;nan
79461;BME280;68929;42.666;23.324;2023-07-20T00:32:37;94254.16;;;24.69;nan
79461;BME280;68929;42.666;23.324;2023-07-20T00:35:03;94258.75;;;24.69;nan
79461;BME280;68929;42.666;23.324;2023-07-20T00:37:28;94263.06;;;24.70;nan
79461;BME280;68929;42.666;23.324;2023-07-20T00:39:54;94241.09;;;24.63;nan
79461;BME280;68929;42.666;23.324;2023-07-20T00:42:19;94254.28;;;24.64;nan
79461;BME280;68929;42.666;23.324;2023-07-20T00:44:45;94225.47;;;24.59;nan
79461;BME280;68929;42.666;23.324;2023-07-20T00:47:10;94232.06;;;24.67;nan
79461;BME280;68929;42.666;23.324;2023-07-20T00:49:37;94245.25;;;24.91;nan
79461;BME280;68929;42.666;23.324;2023-07-20T00:52:03;94233.59;;;24.59;nan
79461;BME280;68929;42.666;23.324;2023-07-20T00:54:29;94233.78;;;24.63;nan
79461;BME280;68929;42.666;23.324;2023-07-20T00:56:55;94241.09;;;24.63;nan
79461;BME280;68929;42.666;23.324;2023-07-20T00:59:21;94227.47;;;24.45;nan
79461;BME280;68929;42.666;23.324;2023-07-20T01:01:46;94224.97;;;24.49;nan
79461;BME280;68929;42.666;23.324;2023-07-20T01:04:12;94224.78;;;24.45;nan
79461;BME280;68929;42.666;23.324;2023-07-20T01:09:22;94232.28;;;24.48;nan
79461;BME280;68929;42.666;23.324;2023-07-20T01:14:16;94240.88;;;24.28;nan
79461;BME280;68929;42.666;23.324;2023-07-20T01:16:42;94256.38;;;24.36;nan
79461;BME280;68929;42.666;23.324;2023-07-20T01:19:07;94237.69;;;24.26;nan
79461;BME280;68929;42.666;23.324;2023-07-20T01:21:44;94247.03;;;24.42;nan
79461;BME280;68929;42.666;23.324;2023-07-20T01:32:34;94225.44;;;23.84;nan
79461;BME280;68929;42.666;23.324;2023-07-20T01:35:02;94238.75;;;24.03;nan
79461;BME280;68929;42.666;23.324;2023-07-20T01:37:30;94241.47;;;24.03;nan
79461;BME280;68929;42.666;23.324;2023-07-20T01:39:57;94236.97;;;24.12;nan
79461;BME280;68929;42.666;23.324;2023-07-20T01:42:23;94244.47;;;24.15;nan
79461;BME280;68929;42.666;23.324;2023-07-20T01:44:52;94241.84;;;24.32;nan
79461;BME280;68929;42.666;23.324;2023-07-20T01:47:18;94235.94;;;24.22;nan
79461;BME280;68929;42.666;23.324;2023-07-20T01:49:44;94244.28;;;24.34;nan
79461;BME280;68929;42.666;23.324;2023-07-20T01:52:09;94255.59;;;24.00;nan
79461;BME280;68929;42.666;23.324;2023-07-20T01:54:34;94249.16;;;23.74;nan
79461;BME280;68929;42.666;23.324;2023-07-20T01:57:00;94241.06;;;23.74;nan
79461;BME280;68929;42.666;23.324;2023-07-20T01:59:25;94250.28;;;23.73;nan
79461;BME280;68929;42.666;23.324;2023-07-20T02:01:50;94227.66;;;23.47;nan
79461;BME280;68929;42.666;23.324;2023-07-20T02:04:16;94230.34;;;23.47;nan
79461;BME280;68929;42.666;23.324;2023-07-20T02:06:41;94240.78;;;23.40;nan
79461;BME280;68929;42.666;23.324;2023-07-20T02:09:07;94230.16;;;23.57;nan
79461;BME280;68929;42.666;23.324;2023-07-20T02:11:33;94240.16;;;23.56;nan
79461;BME280;68929;42.666;23.324;2023-07-20T02:13:58;94225.06;;;23.28;nan
79461;BME280;68929;42.666;23.324;2023-07-20T02:16:23;94229.00;;;23.36;nan
79461;BME280;68929;42.666;23.324;2023-07-20T02:18:49;94241.81;;;23.66;nan
79461;BME280;68929;42.666;23.324;2023-07-20T02:21:14;94245.72;;;23.60;nan
79461;BME280;68929;42.666;23.324;2023-07-20T02:23:39;94230.16;;;23.57;nan
79461;BME280;68929;42.666;23.324;2023-07-20T02:26:05;94232.50;;;23.72;nan
79461;BME280;68929;42.666;23.324;2023-07-20T02:28:30;94223.38;;;23.46;nan
79461;BME280;68929;42.666;23.324;2023-07-20T02:30:55;94220.19;;;23.44;nan
79461;BME280;68929;42.666;23.324;2023-07-20T02:33:21;94223.16;;;23.56;nan
79461;BME280;68929;42.666;23.324;2023-07-20T02:35:46;94238.63;;;23.64;nan
79461;BME280;68929;42.666;23.324;2023-07-20T02:38:12;94236.91;;;23.68;nan
79461;BME280;68929;42.666;23.324;2023-07-20T02:40:37;94218.50;;;23.70;nan
79461;BME280;68929;42.666;23.324;2023-07-20T02:43:16;94233.50;;;23.76;nan
79461;BME280;68929;42.666;23.324;2023-07-20T02:45:43;94180.59;;;23.53;nan
79461;BME280;68929;42.666;23.324;2023-07-20T02:48:09;94210.91;;;23.72;nan
79461;BME280;68929;42.666;23.324;2023-07-20T02:50:34;94205.22;;;23.38;nan
79461;BME280;68929;42.666;23.324;2023-07-20T02:53:00;94191.94;;;23.28;nan
79461;BME280;68929;42.666;23.324;2023-07-20T02:55:25;94213.91;;;23.35;nan
79461;BME280;68929;42.666;23.324;2023-07-20T02:57:51;94206.22;;;23.42;nan
79461;BME280;68929;42.666;23.324;2023-07-20T03:00:16;94210.91;;;23.72;nan
79461;BME280;68929;42.666;23.324;2023-07-20T03:02:44;94209.31;;;23.71;nan
79461;BME280;68929;42.666;23.324;2023-07-20T03:05:13;94218.97;;;23.50;nan
79461;BME280;68929;42.666;23.324;2023-07-20T03:07:38;94212.81;;;23.36;nan
79461;BME280;68929;42.666;23.324;2023-07-20T03:10:04;94216.59;;;23.35;nan
79461;BME280;68929;42.666;23.324;2023-07-20T03:12:32;94217.69;;;23.20;nan
79461;BME280;68929;42.666;23.324;2023-07-20T03:14:59;94215.25;;;22.96;nan
79461;BME280;68929;42.666;23.324;2023-07-20T03:17:24;94207.47;;;22.81;nan
79461;BME280;68929;42.666;23.324;2023-07-20T03:19:50;94228.41;;;22.98;nan
79461;BME280;68929;42.666;23.324;2023-07-20T03:22:15;94214.03;;;22.75;nan
79461;BME280;68929;42.666;23.324;2023-07-20T03:24:40;94216.81;;;22.70;nan
79461;BME280;68929;42.666;23.324;2023-07-20T03:27:06;94233.78;;;22.84;nan
79461;BME280;68929;42.666;23.324;2023-07-20T03:29:32;94240.00;;;22.98;nan
79461;BME280;68929;42.666;23.324;2023-07-20T03:31:58;94223.22;;;22.74;nan
79461;BME280;68929;42.666;23.324;2023-07-20T03:34:24;94221.56;;;22.46;nan
79461;BME280;68929;42.666;23.324;2023-07-20T03:36:50;94229.47;;;22.56;nan
79461;BME280;68929;42.666;23.324;2023-07-20T03:39:16;94227.03;;;22.73;nan
79461;BME280;68929;42.666;23.324;2023-07-20T03:41:41;94211.44;;;22.70;nan
79461;BME280;68929;42.666;23.324;2023-07-20T03:44:15;94229.59;;;22.78;nan
79461;BME280;68929;42.666;23.324;2023-07-20T03:46:40;94235.69;;;22.70;nan
79461;BME280;68929;42.666;23.324;2023-07-20T03:49:06;94247.78;;;22.73;nan
79461;BME280;68929;42.666;23.324;2023-07-20T03:51:32;94237.84;;;22.55;nan
79461;BME280;68929;42.666;23.324;2023-07-20T03:53:57;94213.59;;;22.55;nan
79461;BME280;68929;42.666;23.324;2023-07-20T03:56:23;94240.56;;;22.68;nan
79461;BME280;68929;42.666;23.324;2023-07-20T03:58:49;94238.56;;;22.60;nan
79461;BME280;68929;42.666;23.324;2023-07-20T04:01:14;94243.47;;;22.58;nan
79461;BME280;68929;42.666;23.324;2023-07-20T04:03:42;94243.78;;;22.70;nan
79461;BME280;68929;42.666;23.324;2023-07-20T04:06:07;94243.78;;;22.97;nan
79461;BME280;68929;42.666;23.324;2023-07-20T04:08:33;94241.38;;;23.23;nan
79461;BME280;68929;42.666;23.324;2023-07-20T04:11:01;94218.41;;;23.12;nan
79461;BME280;68929;42.666;23.324;2023-07-20T04:13:26;94227.19;;;23.18;nan
79461;BME280;68929;42.666;23.324;2023-07-20T04:15:55;94234.16;;;23.46;nan
79461;BME280;68929;42.666;23.324;2023-07-20T04:18:21;94226.66;;;23.56;nan
79461;BME280;68929;42.666;23.324;2023-07-20T04:20:46;94216.19;;;23.99;nan
79461;BME280;68929;42.666;23.324;2023-07-20T04:23:12;94234.50;;;24.24;nan
79461;BME280;68929;42.666;23.324;2023-07-20T04:25:39;94226.63;;;23.92;nan
79461;BME280;68929;42.666;23.324;2023-07-20T04:28:08;94219.03;;;23.94;nan
79461;BME280;68929;42.666;23.324;2023-07-20T04:30:35;94200.63;;;23.96;nan
79461;BME280;68929;42.666;23.324;2023-07-20T04:33:01;94217.31;;;23.76;nan
79461;BME280;68929;42.666;23.324;2023-07-20T04:35:52;94230.66;;;23.81;nan
79461;BME280;68929;42.666;23.324;2023-07-20T04:38:19;94222.66;;;23.90;nan
79461;BME280;68929;42.666;23.324;2023-07-20T04:40:45;94211.03;;;23.89;nan
79461;BME280;68929;42.666;23.324;2023-07-20T04:43:11;94195.34;;;23.91;nan
79461;BME280;68929;42.666;23.324;2023-07-20T04:45:37;94211.81;;;24.25;nan
79461;BME280;68929;42.666;23.324;2023-07-20T04:48:03;94211.81;;;24.25;nan
79461;BME280;68929;42.666;23.324;2023-07-20T04:50:28;94211.84;;;24.34;nan
79461;BME280;68929;42.666;23.324;2023-07-20T04:52:53;94204.88;;;24.64;nan
79461;BME280;68929;42.666;23.324;2023-07-20T04:55:26;94185.53;;;24.79;nan
79461;BME280;68929;42.666;23.324;2023-07-20T04:57:51;94202.97;;;24.73;nan
79461;BME280;68929;42.666;23.324;2023-07-20T05:00:17;94216.25;;;24.83;nan
79461;BME280;68929;42.666;23.324;2023-07-20T05:02:42;94206.31;;;25.09;nan
79461;BME280;68929;42.666;23.324;2023-07-20T05:05:08;94206.03;;;25.19;nan
79461;BME280;68929;42.666;23.324;2023-07-20T05:07:34;94194.91;;;25.29;nan
79461;BME280;68929;42.666;23.324;2023-07-20T05:09:59;94211.13;;;25.29;nan
79461;BME280;68929;42.666;23.324;2023-07-20T05:12:26;94195.22;;;25.19;nan
79461;BME280;68929;42.666;23.324;2023-07-20T05:14:51;94207.59;;;25.03;nan
79461;BME280;68929;42.666;23.324;2023-07-20T05:17:16;94218.03;;;24.96;nan
79461;BME280;68929;42.666;23.324;2023-07-20T05:19:42;94219.31;;;24.90;nan
79461;BME280;68929;42.666;23.324;2023-07-20T05:22:07;94213.53;;;25.22;nan
79461;BME280;68929;42.666;23.324;2023-07-20T05:24:33;94224.81;;;25.24;nan
79461;BME280;68929;42.666;23.324;2023-07-20T05:27:01;94225.63;;;25.33;nan
79461;BME280;68929;42.666;23.324;2023-07-20T05:29:26;94228.06;;;25.43;nan
79461;BME280;68929;42.666;23.324;2023-07-20T05:31:51;94227.38;;;25.29;nan
79461;BME280;68929;42.666;23.324;2023-07-20T05:34:17;94237.69;;;25.18;nan
79461;BME280;68929;42.666;23.324;2023-07-20T05:36:43;94240.41;;;25.27;nan
79461;BME280;68929;42.666;23.324;2023-07-20T05:39:08;94233.03;;;25.75;nan
79461;BME280;68929;42.666;23.324;2023-07-20T05:41:33;94236.78;;;25.31;nan
79461;BME280;68929;42.666;23.324;2023-07-20T05:43:59;94225.22;;;25.48;nan
79461;BME280;68929;42.666;23.324;2023-07-20T05:46:24;94224.88;;;25.50;nan
79461;BME280;68929;42.666;23.324;2023-07-20T05:48:52;94234.16;;;25.91;nan
79461;BME280;68929;42.666;23.324;2023-07-20T05:51:18;94243.06;;;25.83;nan
79461;BME280;68929;42.666;23.324;2023-07-20T05:53:43;94239.25;;;26.36;nan
79461;BME280;68929;42.666;23.324;2023-07-20T05:56:23;94238.00;;;26.25;nan
79461;BME280;68929;42.666;23.324;2023-07-20T05:58:56;94230.16;;;26.49;nan
79461;BME280;68929;42.666;23.324;2023-07-20T06:01:24;94205.41;;;26.59;nan
79461;BME280;68929;42.666;23.324;2023-07-20T06:03:52;94213.69;;;26.62;nan
79461;BME280;68929;42.666;23.324;2023-07-20T06:06:18;94226.44;;;26.62;nan
79461;BME280;68929;42.666;23.324;2023-07-20T06:08:43;94238.75;;;26.59;nan
79461;BME280;68929;42.666;23.324;2023-07-20T06:11:08;94240.75;;;26.88;nan
79461;BME280;68929;42.666;23.324;2023-07-20T06:13:34;94224.94;;;26.90;nan
79461;BME280;68929;42.666;23.324;2023-07-20T06:16:03;94234.03;;;27.23;nan
79461;BME280;68929;42.666;23.324;2023-07-20T06:18:31;94230.59;;;27.43;nan
79461;BME280;68929;42.666;23.324;2023-07-20T06:20:57;94211.88;;;27.21;nan
79461;BME280;68929;42.666;23.324;2023-07-20T06:23:27;94222.22;;;26.90;nan
79461;BME280;68929;42.666;23.324;2023-07-20T06:25:58;94199.72;;;27.56;nan
79461;BME280;68929;42.666;23.324;2023-07-20T06:28:28;94207.91;;;27.89;nan
79461;BME280;68929;42.666;23.324;2023-07-20T06:31:03;94218.75;;;27.98;nan
79461;BME280;68929;42.666;23.324;2023-07-20T06:33:29;94203.63;;;28.09;nan
79461;BME280;68929;42.666;23.324;2023-07-20T06:35:54;94204.63;;;27.63;nan
79461;BME280;68929;42.666;23.324;2023-07-20T06:38:22;94219.94;;;28.41;nan
79461;BME280;68929;42.666;23.324;2023-07-20T06:40:49;94218.44;;;28.32;nan
79461;BME280;68929;42.666;23.324;2023-07-20T06:43:14;94215.41;;;28.66;nan
79461;BME280;68929;42.666;23.324;2023-07-20T06:45:40;94212.84;;;28.94;nan
79461;BME280;68929;42.666;23.324;2023-07-20T06:48:05;94208.00;;;28.99;nan
79461;BME280;68929;42.666;23.324;2023-07-20T06:50:31;94219.53;;;29.08;nan
79461;BME280;68929;42.666;23.324;2023-07-20T06:52:56;94203.44;;;29.64;nan
79461;BME280;68929;42.666;23.324;2023-07-20T06:55:23;94200.06;;;29.79;nan
79461;BME280;68929;42.666;23.324;2023-07-20T06:57:49;94216.72;;;29.65;nan
79461;BME280;68929;42.666;23.324;2023-07-20T07:00:18;94211.94;;;29.86;nan
79461;BME280;68929;42.666;23.324;2023-07-20T07:02:44;94213.00;;;29.21;nan
79461;BME280;68929;42.666;23.324;2023-07-20T07:05:09;94245.84;;;29.04;nan
79461;BME280;68929;42.666;23.324;2023-07-20T07:07:35;94229.41;;;29.01;nan
79461;BME280;68929;42.666;23.324;2023-07-20T07:10:01;94209.09;;;28.74;nan
79461;BME280;68929;42.666;23.324;2023-07-20T07:12:29;94242.63;;;28.66;nan
79461;BME280;68929;42.666;23.324;2023-07-20T07:14:55;94246.66;;;28.60;nan
79461;BME280;68929;42.666;23.324;2023-07-20T07:17:28;94267.38;;;28.32;nan
79461;BME280;68929;42.666;23.324;2023-07-20T07:19:55;94287.31;;;27.95;nan
79461;BME280;68929;42.666;23.324;2023-07-20T07:22:21;94277.16;;;27.54;nan
79461;BME280;68929;42.666;23.324;2023-07-20T07:24:47;94265.66;;;27.57;nan
79461;BME280;68929;42.666;23.324;2023-07-20T07:27:12;94273.25;;;28.01;nan
79461;BME280;68929;42.666;23.324;2023-07-20T07:29:38;94283.56;;;28.08;nan
79461;BME280;68929;42.666;23.324;2023-07-20T07:32:03;94293.38;;;28.21;nan
79461;BME280;68929;42.666;23.324;2023-07-20T07:34:29;94284.09;;;28.22;nan
79461;BME280;68929;42.666;23.324;2023-07-20T07:36:54;94287.63;;;28.55;nan
79461;BME280;68929;42.666;23.324;2023-07-20T07:39:19;94271.66;;;28.74;nan
79461;BME280;68929;42.666;23.324;2023-07-20T07:41:55;94248.25;;;28.61;nan
79461;BME280;68929;42.666;23.324;2023-07-20T07:44:21;94277.59;;;29.00;nan
79461;BME280;68929;42.666;23.324;2023-07-20T07:46:50;94261.44;;;28.83;nan
79461;BME280;68929;42.666;23.324;2023-07-20T07:49:16;94271.31;;;28.76;nan
79461;BME280;68929;42.666;23.324;2023-07-20T07:51:42;94235.38;;;28.70;nan
79461;BME280;68929;42.666;23.324;2023-07-20T07:54:16;94221.78;;;28.82;nan
79461;BME280;68929;42.666;23.324;2023-07-20T07:56:41;94214.63;;;28.66;nan
79461;BME280;68929;42.666;23.324;2023-07-20T07:59:16;94238.97;;;28.62;nan
79461;BME280;68929;42.666;23.324;2023-07-20T08:01:41;94236.31;;;28.86;nan
79461;BME280;68929;42.666;23.324;2023-07-20T08:04:07;94215.50;;;29.27;nan
79461;BME280;68929;42.666;23.324;2023-07-20T08:06:32;94252.03;;;29.50;nan
79461;BME280;68929;42.666;23.324;2023-07-20T08:08:57;94266.78;;;29.73;nan
79461;BME280;68929;42.666;23.324;2023-07-20T08:11:23;94277.22;;;29.59;nan
79461;BME280;68929;42.666;23.324;2023-07-20T08:13:49;94286.53;;;29.58;nan
79461;BME280;68929;42.666;23.324;2023-07-20T08:16:14;94275.16;;;29.19;nan
79461;BME280;68929;42.666;23.324;2023-07-20T08:18:45;94264.69;;;28.97;nan
79461;BME280;68929;42.666;23.324;2023-07-20T08:21:11;94269.09;;;28.57;nan
79461;BME280;68929;42.666;23.324;2023-07-20T08:23:36;94264.47;;;28.58;nan
79461;BME280;68929;42.666;23.324;2023-07-20T08:26:02;94311.41;;;29.11;nan
79461;BME280;68929;42.666;23.324;2023-07-20T08:28:27;94304.03;;;28.46;nan
79461;BME280;68929;42.666;23.324;2023-07-20T08:30:54;94284.81;;;28.52;nan
79461;BME280;68929;42.666;23.324;2023-07-20T08:33:20;94289.94;;;28.12;nan
79461;BME280;68929;42.666;23.324;2023-07-20T08:35:46;94305.88;;;27.93;nan
79461;BME280;68929;42.666;23.324;2023-07-20T08:38:11;94300.41;;;28.01;nan
79461;BME280;68929;42.666;23.324;2023-07-20T08:40:42;94294.56;;;27.61;nan
79461;BME280;68929;42.666;23.324;2023-07-20T08:43:08;94294.81;;;27.68;nan
79461;BME280;68929;42.666;23.324;2023-07-20T08:45:34;94296.69;;;28.06;nan
79461;BME280;68929;42.666;23.324;2023-07-20T08:48:01;94289.00;;;28.08;nan
79461;BME280;68929;42.666;23.324;2023-07-20T08:50:30;94297.88;;;28.17;nan
79461;BME280;68929;42.666;23.324;2023-07-20T08:53:01;94290.19;;;27.69;nan
79461;BME280;68929;42.666;23.324;2023-07-20T08:55:27;94283.00;;;27.94;nan
79461;BME280;68929;42.666;23.324;2023-07-20T08:57:54;94278.50;;;27.98;nan
79461;BME280;68929;42.666;23.324;2023-07-20T09:00:21;94282.25;;;28.14;nan
79461;BME280;68929;42.666;23.324;2023-07-20T09:02:49;94260.50;;;28.14;nan
79461;BME280;68929;42.666;23.324;2023-07-20T09:05:21;94279.34;;;28.72;nan
79461;BME280;68929;42.666;23.324;2023-07-20T09:07:47;94255.47;;;28.90;nan
79461;BME280;68929;42.666;23.324;2023-07-20T09:10:13;94271.94;;;28.93;nan
79461;BME280;68929;42.666;23.324;2023-07-20T09:12:40;94277.28;;;28.69;nan
79461;BME280;68929;42.666;23.324;2023-07-20T09:15:07;94258.09;;;28.33;nan
79461;BME280;68929;42.666;23.324;2023-07-20T09:17:33;94252.59;;;28.74;nan
79461;BME280;68929;42.666;23.324;2023-07-20T09:20:02;94257.63;;;29.08;nan
79461;BME280;68929;42.666;23.324;2023-07-20T09:22:31;94254.53;;;29.31;nan
79461;BME280;68929;42.666;23.324;2023-07-20T09:25:00;94251.53;;;29.11;nan
79461;BME280;68929;42.666;23.324;2023-07-20T09:27:36;94259.06;;;29.27;nan
79461;BME280;68929;42.666;23.324;2023-07-20T09:30:03;94254.28;;;29.23;nan
79461;BME280;68929;42.666;23.324;2023-07-20T09:32:29;94239.78;;;29.32;nan
79461;BME280;68929;42.666;23.324;2023-07-20T09:34:54;94254.78;;;29.50;nan
79461;BME280;68929;42.666;23.324;2023-07-20T09:37:23;94248.16;;;29.51;nan
79461;BME280;68929;42.666;23.324;2023-07-20T09:39:51;94253.34;;;29.92;nan
79461;BME280;68929;42.666;23.324;2023-07-20T09:42:17;94251.78;;;29.91;nan
79461;BME280;68929;42.666;23.324;2023-07-20T09:44:44;94241.78;;;29.71;nan
79461;BME280;68929;42.666;23.324;2023-07-20T09:47:10;94236.13;;;29.40;nan
79461;BME280;68929;42.666;23.324;2023-07-20T09:49:42;94235.00;;;29.77;nan
79461;BME280;68929;42.666;23.324;2023-07-20T09:52:19;94201.97;;;30.18;nan
79461;BME280;68929;42.666;23.324;2023-07-20T09:54:49;94220.84;;;31.10;nan
79461;BME280;68929;42.666;23.324;2023-07-20T09:57:15;94225.03;;;31.38;nan
79461;BME280;68929;42.666;23.324;2023-07-20T09:59:41;94214.84;;;32.01;nan
79461;BME280;68929;42.666;23.324;2023-07-20T10:02:20;94202.59;;;31.95;nan
79461;BME280;68929;42.666;23.324;2023-07-20T10:04:46;94210.06;;;31.48;nan
79461;BME280;68929;42.666;23.324;2023-07-20T10:07:19;94197.94;;;30.55;nan
79461;BME280;68929;42.666;23.324;2023-07-20T10:09:59;94203.13;;;30.05;nan
79461;BME280;68929;42.666;23.324;2023-07-20T10:12:27;94211.28;;;29.65;nan
79461;BME280;68929;42.666;23.324;2023-07-20T10:15:08;94196.91;;;29.29;nan
79461;BME280;68929;42.666;23.324;2023-07-20T10:17:37;94206.91;;;29.25;nan
79461;BME280;68929;42.666;23.324;2023-07-20T10:20:13;94188.41;;;29.18;nan
79461;BME280;68929;42.666;23.324;2023-07-20T10:22:44;94202.56;;;29.36;nan
79461;BME280;68929;42.666;23.324;2023-07-20T10:25:11;94232.97;;;29.38;nan
79461;BME280;68929;42.666;23.324;2023-07-20T10:27:50;94229.34;;;29.58;nan
79461;BME280;68929;42.666;23.324;2023-07-20T10:30:17;94195.94;;;29.73;nan
79461;BME280;68929;42.666;23.324;2023-07-20T10:32:51;94195.91;;;29.97;nan
79461;BME280;68929;42.666;23.324;2023-07-20T10:35:27;94206.81;;;30.52;nan
79461;BME280;68929;42.666;23.324;2023-07-20T10:37:54;94205.47;;;30.74;nan
79461;BME280;68929;42.666;23.324;2023-07-20T10:40:28;94211.31;;;30.60;nan
79461;BME280;68929;42.666;23.324;2023-07-20T10:42:58;94201.59;;;30.32;nan
79461;BME280;68929;42.666;23.324;2023-07-20T10:45:57;94206.31;;;30.62;nan
79461;BME280;68929;42.666;23.324;2023-07-20T10:48:23;94146.63;;;30.18;nan
79461;BME280;68929;42.666;23.324;2023-07-20T10:51:43;94115.84;;;30.17;nan
79461;BME280;68929;42.666;23.324;2023-07-20T10:54:01;94155.47;;;29.99;nan
79461;BME280;68929;42.666;23.324;2023-07-20T10:56:28;94179.72;;;30.16;nan
79461;BME280;68929;42.666;23.324;2023-07-20T10:59:17;94163.53;;;30.35;nan
79461;BME280;68929;42.666;23.324;2023-07-20T11:01:44;94156.59;;;30.69;nan
79461;BME280;68929;42.666;23.324;2023-07-20T11:04:10;94147.88;;;30.63;nan
79461;BME280;68929;42.666;23.324;2023-07-20T11:06:36;94143.31;;;30.67;nan
79461;BME280;68929;42.666;23.324;2023-07-20T11:09:09;94136.72;;;31.15;nan
79461;BME280;68929;42.666;23.324;2023-07-20T11:11:49;94142.16;;;32.00;nan
79461;BME280;68929;42.666;23.324;2023-07-20T11:14:28;94133.88;;;32.77;nan
79461;BME280;68929;42.666;23.324;2023-07-20T11:17:11;94115.00;;;33.43;nan
79461;BME280;68929;42.666;23.324;2023-07-20T11:19:38;94147.19;;;34.35;nan
79461;BME280;68929;42.666;23.324;2023-07-20T11:22:04;94145.03;;;35.35;nan
79461;BME280;68929;42.666;23.324;2023-07-20T11:24:33;94131.72;;;35.45;nan
79461;BME280;68929;42.666;23.324;2023-07-20T11:27:06;94128.38;;;35.14;nan
79461;BME280;68929;42.666;23.324;2023-07-20T11:29:32;94128.16;;;34.93;nan
79461;BME280;68929;42.666;23.324;2023-07-20T11:31:57;94120.16;;;35.76;nan
79461;BME280;68929;42.666;23.324;2023-07-20T11:34:26;94104.69;;;36.22;nan
79461;BME280;68929;42.666;23.324;2023-07-20T11:36:52;94103.25;;;36.84;nan
79461;BME280;68929;42.666;23.324;2023-07-20T11:39:22;94100.94;;;37.18;nan
79461;BME280;68929;42.666;23.324;2023-07-20T11:41:49;94107.97;;;37.72;nan
79461;BME280;68929;42.666;23.324;2023-07-20T11:44:19;94093.38;;;37.75;nan
79461;BME280;68929;42.666;23.324;2023-07-20T11:46:46;94106.06;;;38.63;nan
79461;BME280;68929;42.666;23.324;2023-07-20T11:49:12;94078.19;;;38.98;nan
79461;BME280;68929;42.666;23.324;2023-07-20T11:51:38;94091.19;;;39.89;nan
79461;BME280;68929;42.666;23.324;2023-07-20T11:54:06;94095.16;;;40.56;nan
79461;BME280;68929;42.666;23.324;2023-07-20T11:56:32;94075.47;;;40.17;nan
79461;BME280;68929;42.666;23.324;2023-07-20T11:58:59;94076.22;;;40.21;nan
79461;BME280;68929;42.666;23.324;2023-07-20T12:01:27;94092.59;;;40.08;nan
79461;BME280;68929;42.666;23.324;2023-07-20T12:04:01;94065.22;;;38.95;nan
79461;BME280;68929;42.666;23.324;2023-07-20T12:06:40;94072.06;;;39.68;nan
79461;BME280;68929;42.666;23.324;2023-07-20T12:09:13;94082.91;;;39.89;nan
79461;BME280;68929;42.666;23.324;2023-07-20T12:11:39;94074.22;;;39.87;nan
79461;BME280;68929;42.666;23.324;2023-07-20T12:14:08;94070.03;;;40.10;nan
79461;BME280;68929;42.666;23.324;2023-07-20T12:16:35;94072.25;;;40.52;nan
79461;BME280;68929;42.666;23.324;2023-07-20T12:19:11;94063.56;;;39.49;nan
79461;BME280;68929;42.666;23.324;2023-07-20T12:21:39;94058.50;;;38.34;nan
79461;BME280;68929;42.666;23.324;2023-07-20T12:24:08;94058.94;;;38.25;nan
79461;BME280;68929;42.666;23.324;2023-07-20T12:26:36;94067.34;;;38.66;nan
79461;BME280;68929;42.666;23.324;2023-07-20T12:29:02;94056.31;;;39.65;nan
79461;BME280;68929;42.666;23.324;2023-07-20T12:31:36;94048.78;;;40.60;nan
79461;BME280;68929;42.666;23.324;2023-07-20T12:34:02;94054.25;;;39.29;nan
79461;BME280;68929;42.666;23.324;2023-07-20T12:36:27;94044.91;;;38.61;nan
79461;BME280;68929;42.666;23.324;2023-07-20T12:38:53;94055.69;;;39.84;nan
79461;BME280;68929;42.666;23.324;2023-07-20T12:41:20;94050.00;;;40.29;nan
79461;BME280;68929;42.666;23.324;2023-07-20T12:43:50;94058.91;;;40.43;nan
79461;BME280;68929;42.666;23.324;2023-07-20T12:46:15;94062.41;;;39.83;nan
79461;BME280;68929;42.666;23.324;2023-07-20T12:48:41;94030.09;;;38.33;nan
79461;BME280;68929;42.666;23.324;2023-07-20T12:51:08;94050.19;;;38.37;nan
79461;BME280;68929;42.666;23.324;2023-07-20T12:53:34;94047.94;;;38.08;nan
79461;BME280;68929;42.666;23.324;2023-07-20T12:56:00;94056.38;;;37.69;nan
79461;BME280;68929;42.666;23.324;2023-07-20T12:58:26;94039.94;;;37.34;nan
79461;BME280;68929;42.666;23.324;2023-07-20T13:00:51;94040.94;;;37.96;nan
79461;BME280;68929;42.666;23.324;2023-07-20T13:03:25;94030.75;;;39.06;nan
79461;BME280;68929;42.666;23.324;2023-07-20T13:05:51;94040.78;;;38.28;nan
79461;BME280;68929;42.666;23.324;2023-07-20T13:08:16;94040.63;;;38.49;nan
79461;BME280;68929;42.666;23.324;2023-07-20T13:10:43;94035.75;;;38.78;nan
79461;BME280;68929;42.666;23.324;2023-07-20T13:13:09;94019.25;;;38.60;nan
79461;BME280;68929;42.666;23.324;2023-07-20T13:15:42;94040.41;;;38.88;nan
79461;BME280;68929;42.666;23.324;2023-07-20T13:18:10;94034.22;;;38.70;nan
79461;BME280;68929;42.666;23.324;2023-07-20T13:20:35;94029.59;;;38.53;nan
79461;BME280;68929;42.666;23.324;2023-07-20T13:23:00;94028.38;;;37.81;nan
79461;BME280;68929;42.666;23.324;2023-07-20T13:25:26;94029.03;;;38.06;nan